Time;durP1;ratioP1;P1;durP2;ratioP2;P2;SDS_P1;SDS_P2;PMS_P1;PMS_P2;Temp;Humidity;BMP_temperature;BMP_pressure;BME280_temperature;BME280_humidity;BME280_pressure;Samples;Min_cycle;Max_cycle;Signal;HPM_P1;HPM_P2
2022/09/19 00:01:54;;;;;;;7.38;2.33;;;9.30;99.90;;;-144.05;86.50;125687.94;4811224;29;20046;-84
2022/09/19 00:04:32;;;;;;;8.57;2.28;;;9.30;99.90;;;-144.05;86.22;125687.94;4812233;29;20031;-85
2022/09/19 00:07:00;;;;;;;15.77;3.40;;;9.30;99.90;;;-144.05;86.48;125687.94;4825447;29;20031;-88
2022/09/19 00:09:31;;;;;;;12.60;2.97;;;9.20;99.90;;;-144.05;86.87;125687.94;4810374;29;20050;-86
2022/09/19 00:11:57;;;;;;;13.40;3.65;;;9.30;99.90;;;-144.05;86.61;125687.94;4810347;29;20121;-85
2022/09/19 00:14:33;;;;;;;13.35;3.15;;;9.30;99.90;;;-144.05;86.56;125687.94;4810350;29;20034;-84
2022/09/19 00:17:06;;;;;;;17.05;2.85;;;9.30;99.90;;;-144.05;86.71;125687.94;4825295;29;20035;-87
2022/09/19 00:19:32;;;;;;;17.90;3.15;;;9.20;99.90;;;-144.05;86.33;125687.94;4826189;29;20039;-86
2022/09/19 00:22:01;;;;;;;13.90;2.10;;;9.20;99.90;;;-144.05;86.35;125687.94;4810725;29;20035;-85
2022/09/19 00:24:48;;;;;;;16.95;3.15;;;9.20;99.90;;;-144.05;86.40;125687.94;4810985;29;20117;-83
2022/09/19 00:27:27;;;;;;;18.20;4.10;;;9.10;99.90;;;-144.05;86.64;125687.94;4811050;29;20035;-87
2022/09/19 00:29:54;;;;;;;12.95;2.15;;;9.20;99.90;;;-144.05;86.57;125687.94;4810862;29;20035;-86
2022/09/19 00:32:23;;;;;;;11.75;2.80;;;9.10;99.90;;;-144.05;86.44;125687.94;4810540;29;20548;-87
2022/09/19 00:34:55;;;;;;;22.70;3.45;;;9.10;99.90;;;-144.05;86.67;125687.94;4813804;29;20058;-85
2022/09/19 00:37:21;;;;;;;11.25;2.35;;;9.00;99.90;;;-144.05;86.67;125687.94;4815413;29;20110;-86
2022/09/19 00:39:48;;;;;;;12.32;2.75;;;9.00;99.90;;;-144.05;86.94;125687.94;4814436;29;20106;-87
2022/09/19 00:42:20;;;;;;;14.13;2.60;;;9.00;99.90;;;-144.05;87.10;125687.94;4814874;29;20369;-86
2022/09/19 00:44:56;;;;;;;20.42;2.65;;;9.10;99.90;;;-144.05;87.02;125687.94;4815637;29;20035;-84
2022/09/19 00:47:35;;;;;;;13.95;3.55;;;9.10;99.90;;;-144.05;87.22;125687.94;4817257;29;20217;-84
2022/09/19 00:50:11;;;;;;;16.88;3.72;;;9.10;99.90;;;-144.05;87.09;125687.94;4815610;29;20035;-86
2022/09/19 00:52:59;;;;;;;13.27;2.28;;;9.10;99.90;;;-144.05;87.06;125687.94;4814217;29;20080;-86
2022/09/19 00:55:25;;;;;;;22.35;3.38;;;9.10;99.90;;;-144.05;86.53;125687.94;4814992;29;20038;-87
2022/09/19 00:57:55;;;;;;;12.02;3.70;;;9.10;99.90;;;-144.05;86.37;125687.94;4814008;29;20035;-89
2022/09/19 01:00:22;;;;;;;13.63;3.08;;;9.10;99.90;;;-144.05;87.04;125687.94;4813975;29;20033;-87
2022/09/19 01:02:49;;;;;;;16.52;3.10;;;9.10;99.90;;;-144.05;87.00;125687.94;4814392;29;20095;-85
2022/09/19 01:05:17;;;;;;;10.00;2.42;;;9.20;99.90;;;-144.05;86.81;125687.94;4813273;29;20449;-85
2022/09/19 01:08:56;;;;;;;11.10;2.70;;;9.20;99.90;;;-144.05;87.08;125687.94;4814198;29;20039;-84
2022/09/19 01:12:16;;;;;;;10.73;2.28;;;9.30;99.90;;;-144.05;86.80;125687.94;4814893;29;20042;-86
2022/09/19 01:15:09;;;;;;;10.75;2.70;;;9.30;99.90;;;-144.05;86.63;125687.94;4812348;29;20310;-85
2022/09/19 01:17:52;;;;;;;19.00;2.75;;;9.30;99.90;;;-144.05;86.67;125687.94;4813305;29;20038;-85
2022/09/19 01:20:55;;;;;;;11.80;2.78;;;9.20;99.90;;;-144.05;86.67;125687.94;4813926;29;20035;-87
2022/09/19 01:23:57;;;;;;;18.50;3.15;;;9.20;99.90;;;-144.05;86.71;125687.94;4812835;29;20027;-87
2022/09/19 01:27:01;;;;;;;8.70;2.30;;;9.30;99.90;;;-144.05;86.51;125687.94;4812815;29;20045;-87
2022/09/19 01:29:47;;;;;;;20.88;3.60;;;9.20;99.90;;;-144.05;86.87;125687.94;4813908;29;20114;-85
2022/09/19 01:32:35;;;;;;;19.38;2.60;;;9.20;99.90;;;-144.05;86.91;125687.94;4812002;29;20179;-83
2022/09/19 01:35:11;;;;;;;17.23;2.95;;;9.10;99.90;;;-144.05;87.01;125687.94;4812709;29;20438;-86
2022/09/19 01:37:54;;;;;;;13.93;2.63;;;9.10;99.90;;;-144.05;86.92;125687.94;4813213;29;20035;-85
2022/09/19 01:40:23;;;;;;;21.00;2.80;;;9.10;99.90;;;-144.05;86.97;125687.94;4812215;29;20038;-86
2022/09/19 01:42:57;;;;;;;13.23;2.45;;;9.10;99.90;;;-144.05;86.90;125687.94;4814356;29;20027;-86
2022/09/19 01:45:39;;;;;;;7.82;1.83;;;9.00;99.90;;;-144.05;86.80;125687.94;4810702;29;20039;-87
2022/09/19 01:48:47;;;;;;;13.70;2.05;;;9.00;99.90;;;-144.05;86.81;125687.94;4813512;29;20030;-86
2022/09/19 01:51:54;;;;;;;15.88;2.83;;;9.00;99.90;;;-144.05;87.43;125687.94;4825634;29;20067;-85
2022/09/19 01:54:38;;;;;;;;;;;9.00;99.90;;;-144.05;87.52;125687.94;4813196;29;20042;-86
2022/09/19 01:57:57;;;;;;;12.90;2.92;;;9.00;99.90;;;-144.05;87.15;125687.94;4812087;29;19923;-86
2022/09/19 02:00:27;;;;;;;13.38;2.67;;;9.10;99.90;;;-144.05;87.47;125687.94;4812080;29;20034;-88
2022/09/19 02:03:57;;;;;;;10.63;2.83;;;9.10;99.90;;;-144.05;87.15;125687.94;4812572;29;20122;-87
2022/09/19 02:06:56;;;;;;;10.35;2.15;;;9.10;99.90;;;-144.05;87.13;125687.94;4779353;30;20039;-82
2022/09/19 02:10:02;;;;;;;13.25;2.50;;;9.10;99.90;;;-144.05;87.19;125687.94;4781238;30;20047;-86
2022/09/19 02:12:38;;;;;;;13.20;3.17;;;9.00;99.90;;;-144.05;87.33;125687.94;4820824;29;20428;-83
2022/09/19 02:15:12;;;;;;;12.52;2.72;;;9.00;99.90;;;-144.05;87.54;125687.94;4837581;29;20088;-85
2022/09/19 02:17:51;;;;;;;15.95;3.05;;;9.10;99.90;;;-144.05;87.36;125687.94;4821744;29;20038;-83
2022/09/19 02:20:33;;;;;;;11.75;2.58;;;9.10;99.90;;;-144.05;87.80;125687.94;4823346;29;20145;-82
2022/09/19 02:23:22;;;;;;;15.43;2.53;;;9.10;99.90;;;-144.05;87.61;125687.94;4820899;29;20045;-84
2022/09/19 02:25:53;;;;;;;19.17;3.30;;;9.20;99.90;;;-144.05;87.46;125687.94;4821287;29;20073;-84
2022/09/19 02:28:41;;;;;;;17.70;3.13;;;9.20;99.90;;;-144.05;87.68;125687.94;4820951;29;20039;-84
2022/09/19 02:31:09;;;;;;;12.15;2.60;;;9.10;99.90;;;-144.05;87.57;125687.94;4813304;29;20051;-86
2022/09/19 02:33:39;;;;;;;20.15;3.15;;;9.00;99.90;;;-144.05;88.15;125687.94;4815497;29;20148;-86
2022/09/19 02:36:33;;;;;;;21.77;3.17;;;9.10;99.90;;;-144.05;88.08;125687.94;4819795;29;20038;-83
2022/09/19 02:39:04;;;;;;;14.75;2.63;;;9.10;99.90;;;-144.05;87.81;125687.94;4812109;29;20050;-83
2022/09/19 02:42:00;;;;;;;20.30;3.13;;;9.20;99.90;;;-144.05;87.62;125687.94;4812987;29;20035;-86
2022/09/19 02:45:27;;;;;;;12.63;2.47;;;9.10;99.90;;;-144.05;87.80;125687.94;4827697;29;20034;-86
2022/09/19 02:48:40;;;;;;;12.95;2.92;;;9.00;99.90;;;-144.05;87.63;125687.94;4807492;29;20065;-85
2022/09/19 02:51:49;;;;;;;23.55;3.53;;;9.00;99.90;;;-144.05;87.65;125687.94;4811265;29;20031;-83
2022/09/19 02:54:26;;;;;;;18.90;3.58;;;8.90;99.90;;;-144.05;87.68;125687.94;4813329;29;20046;-83
2022/09/19 02:57:01;;;;;;;11.13;2.55;;;8.90;99.90;;;-144.05;87.65;125687.94;4811726;29;20517;-87
2022/09/19 02:59:38;;;;;;;11.55;2.47;;;8.80;99.90;;;-144.05;87.95;125687.94;4818027;29;20106;-81
2022/09/19 03:02:21;;;;;;;15.90;2.83;;;8.70;99.90;;;-144.05;87.85;125687.94;4817002;29;20031;-85
2022/09/19 03:05:15;;;;;;;18.63;3.00;;;8.80;99.90;;;-144.05;88.13;125687.94;4814066;29;20090;-87
2022/09/19 03:08:00;;;;;;;17.48;3.47;;;8.70;99.90;;;-144.05;88.52;125687.94;4805137;29;20035;-85
2022/09/19 03:10:35;;;;;;;17.65;3.90;;;8.70;99.90;;;-144.05;88.20;125687.94;4810832;29;20030;-87
2022/09/19 03:13:08;;;;;;;15.82;3.78;;;8.70;99.90;;;-144.05;87.94;125687.94;4812140;29;20075;-85
2022/09/19 03:15:56;;;;;;;13.82;3.10;;;8.70;99.90;;;-144.05;88.15;125687.94;4810444;29;20039;-85
2022/09/19 03:18:26;;;;;;;23.63;3.50;;;8.70;99.90;;;-144.05;88.28;125687.94;4810857;29;20536;-83
2022/09/19 03:21:04;;;;;;;18.85;3.70;;;8.70;99.90;;;-144.05;88.76;125687.94;4811523;29;20035;-83
2022/09/19 03:23:46;;;;;;;16.17;3.28;;;8.70;99.90;;;-144.05;88.60;125687.94;4826190;29;20030;-86
2022/09/19 03:26:20;;;;;;;21.13;3.42;;;8.70;99.90;;;-144.05;88.38;125687.94;4810804;29;20038;-87
2022/09/19 03:28:47;;;;;;;24.55;4.07;;;8.80;99.90;;;-144.05;88.51;125687.94;4810670;29;20105;-86
2022/09/19 03:31:14;;;;;;;13.93;3.33;;;8.70;99.90;;;-144.05;88.25;125687.94;4810906;29;20039;-85
2022/09/19 03:33:40;;;;;;;17.98;3.35;;;8.80;99.90;;;-144.05;88.54;125687.94;4810508;29;20058;-86
2022/09/19 03:36:07;;;;;;;25.63;3.53;;;8.80;99.90;;;-144.05;88.68;125687.94;4809841;29;20446;-85
2022/09/19 03:38:44;;;;;;;19.25;3.53;;;8.80;99.90;;;-144.05;88.33;125687.94;4809562;29;20035;-86
2022/09/19 03:41:22;;;;;;;24.65;3.53;;;8.70;99.90;;;-144.05;88.31;125687.94;4808723;29;20031;-85
2022/09/19 03:43:48;;;;;;;16.17;3.08;;;8.70;99.90;;;-144.05;88.25;125687.94;4809912;29;20066;-85
2022/09/19 03:46:22;;;;;;;10.60;3.10;;;8.70;99.90;;;-144.05;88.27;125687.94;4810477;29;20035;-85
2022/09/19 03:48:48;;;;;;;15.65;3.40;;;8.70;99.90;;;-144.05;88.21;125687.94;4811390;29;20039;-85
2022/09/19 03:51:17;;;;;;;19.35;4.43;;;8.70;99.90;;;-144.05;88.26;125687.94;4811136;29;20031;-86
2022/09/19 03:53:44;;;;;;;24.75;4.53;;;8.70;99.90;;;-144.05;88.63;125687.94;4809637;29;20072;-84
2022/09/19 03:56:16;;;;;;;18.38;4.22;;;8.70;99.90;;;-144.05;88.71;125687.94;4811062;29;20457;-83
2022/09/19 03:58:43;;;;;;;18.17;3.55;;;8.80;99.90;;;-144.05;88.68;125687.94;4811193;29;20092;-85
2022/09/19 04:01:14;;;;;;;23.98;3.50;;;8.80;99.90;;;-144.05;88.79;125687.94;4811223;29;20502;-82
2022/09/19 04:03:40;;;;;;;18.10;3.47;;;8.90;99.90;;;-144.05;88.76;125687.94;4811193;29;20042;-82
2022/09/19 04:06:08;;;;;;;27.50;3.65;;;8.90;99.90;;;-144.05;88.64;125687.94;4809589;29;20068;-83
2022/09/19 04:08:35;;;;;;;14.43;3.00;;;9.00;99.90;;;-144.05;88.57;125687.94;4810476;29;20031;-84
2022/09/19 04:11:01;;;;;;;20.67;3.45;;;9.00;99.90;;;-144.05;88.90;125687.94;4814244;29;20038;-86
2022/09/19 04:13:28;;;;;;;18.63;3.20;;;9.10;99.90;;;-144.05;89.19;125687.94;4814059;29;20046;-87
2022/09/19 04:15:54;;;;;;;19.63;3.40;;;9.10;99.90;;;-144.05;88.88;125687.94;4817618;29;20117;-82
2022/09/19 04:18:20;;;;;;;16.08;3.38;;;9.10;99.90;;;-144.05;88.56;125687.94;4829824;29;20047;-84
2022/09/19 04:20:50;;;;;;;20.20;3.47;;;9.20;99.90;;;-144.05;88.74;125687.94;4815369;29;20372;-85
2022/09/19 04:23:18;;;;;;;19.83;3.50;;;9.20;99.90;;;-144.05;88.68;125687.94;4813615;29;20499;-87
2022/09/19 04:25:46;;;;;;;16.73;3.30;;;9.30;99.90;;;-144.05;88.83;125687.94;4814882;29;20035;-86
2022/09/19 04:28:16;;;;;;;13.90;3.78;;;9.30;99.90;;;-144.05;88.59;125687.94;4813727;29;20082;-83
2022/09/19 04:30:43;;;;;;;20.25;4.25;;;9.30;99.90;;;-144.05;88.28;125687.94;4814949;29;20126;-83
2022/09/19 04:33:13;;;;;;;18.40;4.05;;;9.30;99.90;;;-144.05;88.30;125687.94;4819570;29;20043;-88
2022/09/19 04:35:41;;;;;;;17.83;3.10;;;9.40;99.90;;;-144.05;88.53;125687.94;4815241;29;20034;-84
2022/09/19 04:38:17;;;;;;;19.42;3.58;;;9.40;99.90;;;-144.05;88.42;125687.94;4826183;24;20128;-83
2022/09/19 04:40:48;;;;;;;18.67;3.38;;;9.40;99.90;;;-144.05;88.17;125687.94;4795487;29;20087;-82
2022/09/19 04:43:18;;;;;;;19.42;2.97;;;9.40;99.90;;;-144.05;88.18;125687.94;4793058;30;20043;-82
2022/09/19 04:45:47;;;;;;;24.40;5.30;;;9.50;99.90;;;-144.05;87.95;125687.94;4794666;29;20523;-82
2022/09/19 04:48:15;;;;;;;12.90;3.30;;;9.50;99.90;;;-144.05;88.09;125687.94;4810316;29;20066;-85
2022/09/19 04:50:50;;;;;;;18.02;3.38;;;9.50;99.90;;;-144.05;88.06;125687.94;4811373;29;20042;-83
2022/09/19 04:53:23;;;;;;;19.67;3.20;;;9.60;99.90;;;-144.05;88.12;125687.94;4809762;29;20036;-84
2022/09/19 04:55:53;;;;;;;19.75;4.47;;;9.60;99.90;;;-144.05;88.21;125687.94;4793780;29;20579;-84
2022/09/19 04:58:21;;;;;;;21.70;3.97;;;9.60;99.90;;;-144.05;88.47;125687.94;4791448;29;20042;-83
2022/09/19 05:00:55;;;;;;;20.02;3.55;;;9.60;99.90;;;-144.05;88.44;125687.94;4806944;29;20369;-82
2022/09/19 05:03:25;;;;;;;20.98;3.58;;;9.60;99.90;;;-144.05;88.35;125687.94;4792763;29;20039;-82
2022/09/19 05:05:53;;;;;;;15.65;2.80;;;9.60;99.90;;;-144.05;88.00;125687.94;4794033;29;20114;-83
2022/09/19 05:08:25;;;;;;;15.98;2.55;;;9.60;99.90;;;-144.05;88.06;125687.94;4795396;29;20073;-85
2022/09/19 05:10:55;;;;;;;14.60;2.42;;;9.60;99.90;;;-144.05;88.30;125687.94;4793542;29;20051;-86
2022/09/19 05:13:29;;;;;;;18.83;3.80;;;9.60;99.90;;;-144.05;88.38;125687.94;4791486;29;20040;-84
2022/09/19 05:16:00;;;;;;;12.97;2.70;;;9.70;99.90;;;-144.05;88.27;125687.94;4792939;29;20046;-84
2022/09/19 05:18:28;;;;;;;15.93;2.65;;;9.70;99.90;;;-144.05;88.08;125687.94;4794098;29;20449;-83
2022/09/19 05:20:55;;;;;;;14.20;2.85;;;9.70;99.90;;;-144.05;87.98;125687.94;4792485;29;20046;-83
2022/09/19 05:23:24;;;;;;;16.60;3.33;;;9.70;99.90;;;-144.05;87.51;125687.94;4790444;29;20043;-84
2022/09/19 05:25:53;;;;;;;11.00;3.25;;;9.70;99.90;;;-144.05;87.52;125687.94;4792503;29;20119;-81
2022/09/19 05:28:26;;;;;;;16.35;2.88;;;9.70;99.90;;;-144.05;87.67;125687.94;4791733;29;20037;-82
2022/09/19 05:30:56;;;;;;;24.17;3.70;;;9.70;99.90;;;-144.05;87.72;125687.94;4789896;29;20528;-83
2022/09/19 05:33:28;;;;;;;14.02;2.55;;;9.60;99.90;;;-144.05;87.88;125687.94;4790485;29;20051;-82
2022/09/19 05:36:00;;;;;;;19.73;3.60;;;9.70;99.90;;;-144.05;87.58;125687.94;4790976;30;20027;-83
2022/09/19 05:38:32;;;;;;;14.93;3.25;;;9.70;99.90;;;-144.05;87.66;125687.94;4790361;29;20069;-84
2022/09/19 05:41:02;;;;;;;14.02;3.05;;;9.60;99.90;;;-144.05;88.08;125687.94;4791898;29;20316;-82
2022/09/19 05:43:29;;;;;;;16.10;2.47;;;9.60;99.90;;;-144.05;87.80;125687.94;4791606;29;20131;-84
2022/09/19 05:45:56;;;;;;;15.95;3.17;;;9.60;99.90;;;-144.05;87.81;125687.94;4805283;29;20035;-81
2022/09/19 05:48:26;;;;;;;24.38;3.88;;;9.60;99.90;;;-144.05;87.55;125687.94;4791082;29;20050;-84
2022/09/19 05:50:53;;;;;;;16.10;3.13;;;9.60;99.90;;;-144.05;87.59;125687.94;4790177;29;20496;-84
2022/09/19 05:56:08;;;;;;;15.15;2.85;;;9.70;99.90;;;-144.05;87.57;125687.94;4792297;30;20105;-83
2022/09/19 05:58:35;;;;;;;18.85;2.80;;;9.70;99.90;;;-144.05;87.22;125687.94;4776098;30;20427;-86
2022/09/19 06:01:12;;;;;;;15.70;3.42;;;9.70;99.90;;;-144.05;87.77;125687.94;4791368;29;20035;-84
2022/09/19 06:03:39;;;;;;;15.40;3.65;;;9.80;99.90;;;-144.05;87.67;125687.94;4790181;29;20036;-87
2022/09/19 06:06:13;;;;;;;17.88;3.80;;;9.80;99.90;;;-144.05;87.48;125687.94;4790110;29;20031;-86
2022/09/19 06:08:45;;;;;;;17.73;3.53;;;9.90;99.90;;;-144.05;87.47;125687.94;4793355;29;20508;-84
2022/09/19 06:11:12;;;;;;;10.98;3.83;;;10.00;99.90;;;-144.05;87.01;125687.94;4792151;29;20053;-84
2022/09/19 06:16:40;;;;;;;13.20;3.17;;;10.10;99.90;;;-144.05;86.79;125687.94;4807908;29;20050;-85
2022/09/19 06:19:06;;;;;;;21.48;4.07;;;10.10;99.90;;;-144.05;86.44;125687.94;4791382;29;20069;-86
2022/09/19 06:21:33;;;;;;;19.83;4.10;;;10.10;99.90;;;-144.05;86.50;125687.94;4793633;29;20031;-86
2022/09/19 06:24:04;;;;;;;18.40;3.45;;;10.10;99.90;;;-144.05;86.22;125687.94;4806826;29;20031;-85
2022/09/19 06:26:30;;;;;;;19.20;3.45;;;10.00;99.90;;;-144.05;86.03;125687.94;4806885;29;20043;-86
2022/09/19 06:28:56;;;;;;;17.40;2.85;;;10.10;99.90;;;-144.05;85.84;125687.94;4791854;29;20096;-86
2022/09/19 06:31:22;;;;;;;14.90;3.40;;;10.10;99.90;;;-144.05;86.09;125687.94;4791316;29;20039;-84
2022/09/19 06:33:48;;;;;;;13.77;3.60;;;10.10;99.90;;;-144.05;85.77;125687.94;4792348;29;20031;-86
2022/09/19 06:36:14;;;;;;;15.38;3.28;;;10.20;99.90;;;-144.05;85.84;125687.94;4791421;29;20032;-86
2022/09/19 06:38:42;;;;;;;18.33;3.22;;;10.30;99.90;;;-144.05;85.39;125687.94;4789999;29;20068;-88
2022/09/19 06:41:08;;;;;;;18.00;3.85;;;10.20;99.90;;;-144.05;85.28;125687.94;4790385;29;20038;-86
2022/09/19 06:43:34;;;;;;;22.88;4.35;;;10.20;99.90;;;-144.05;84.97;125687.94;4799013;29;20100;-82
2022/09/19 06:46:00;;;;;;;19.92;3.90;;;10.20;99.90;;;-144.05;84.67;125687.94;4807983;29;20545;-86
2022/09/19 06:48:26;;;;;;;12.55;3.83;;;10.30;99.90;;;-144.05;85.16;125687.94;4808133;29;20057;-86
2022/09/19 06:50:52;;;;;;;16.35;3.28;;;10.40;99.90;;;-144.05;84.01;125687.94;4811495;29;20051;-85
2022/09/19 06:53:19;;;;;;;18.77;3.58;;;10.50;99.90;;;-144.05;83.49;125687.94;4807433;29;20050;-84
2022/09/19 06:55:44;;;;;;;14.75;2.85;;;10.60;99.90;;;-144.05;83.07;125687.94;4797536;29;20524;-83
2022/09/19 06:58:12;;;;;;;14.90;3.60;;;10.70;99.90;;;-144.05;83.15;125687.94;4791220;29;20043;-86
2022/09/19 07:00:40;;;;;;;16.88;3.55;;;10.80;99.90;;;-144.05;82.86;125687.94;4791333;29;20039;-84
2022/09/19 07:03:15;;;;;;;14.88;3.72;;;10.90;99.90;;;-144.05;82.81;125687.94;4790289;29;20108;-83
2022/09/19 07:05:47;;;;;;;11.93;3.70;;;11.00;99.90;;;-144.05;82.43;125687.94;4794349;29;20055;-85
2022/09/19 07:08:14;;;;;;;17.73;3.70;;;11.20;99.90;;;-144.05;81.81;125687.94;4793189;29;20042;-85
2022/09/19 07:10:42;;;;;;;18.42;3.72;;;11.30;99.90;;;-144.05;81.42;125687.94;4794645;29;20039;-84
2022/09/19 07:13:16;;;;;;;13.05;2.80;;;11.50;99.90;;;-144.05;80.45;125687.94;4793023;29;20043;-83
2022/09/19 07:15:43;;;;;;;13.18;3.63;;;11.60;99.90;;;-144.05;80.24;125687.94;4793300;29;20092;-83
2022/09/19 07:18:12;;;;;;;17.25;3.83;;;11.50;99.90;;;-144.05;80.27;125687.94;4791268;29;20035;-82
2022/09/19 07:20:39;;;;;;;15.50;3.80;;;11.80;99.90;;;-144.05;78.18;125687.94;4791822;29;20027;-84
2022/09/19 07:23:17;;;;;;;11.50;2.45;;;12.20;99.90;;;-144.05;76.67;125687.94;4791382;29;20177;-84
2022/09/19 07:25:44;;;;;;;16.75;3.80;;;12.30;99.90;;;-144.05;76.00;125687.94;4791533;29;20046;-84
2022/09/19 07:28:15;;;;;;;11.20;3.15;;;12.30;99.90;;;-144.05;76.25;125687.94;4791962;29;20039;-84
2022/09/19 07:30:45;;;;;;;17.13;3.00;;;12.30;99.90;;;-144.05;76.77;125687.94;4789991;29;20046;-85
2022/09/19 07:33:15;;;;;;;14.52;2.90;;;12.30;99.90;;;-144.05;75.39;125687.94;4790485;30;20040;-83
2022/09/19 07:35:42;;;;;;;15.25;3.20;;;12.20;99.90;;;-144.05;75.84;125687.94;4791597;29;20031;-84
2022/09/19 07:38:18;;;;;;;12.93;3.08;;;12.10;99.90;;;-144.05;76.09;125687.94;4792275;29;20123;-85
2022/09/19 07:40:45;;;;;;;12.50;2.97;;;12.10;99.90;;;-144.05;77.11;125687.94;4791472;29;20061;-83
2022/09/19 07:43:14;;;;;;;18.50;2.92;;;12.20;99.90;;;-144.05;77.44;125687.94;4792483;29;20035;-84
2022/09/19 07:45:51;;;;;;;15.52;2.80;;;12.20;99.90;;;-144.05;77.53;125687.94;4808325;29;20466;-82
2022/09/19 07:48:19;;;;;;;11.98;2.90;;;12.30;99.90;;;-144.05;76.50;125687.94;4793836;29;20383;-85
2022/09/19 07:50:47;;;;;;;10.50;2.20;;;12.30;99.90;;;-144.05;76.55;125687.94;4794623;29;20062;-84
2022/09/19 07:53:22;;;;;;;13.40;2.85;;;12.30;99.90;;;-144.05;76.90;125687.94;4793375;29;20039;-83
2022/09/19 07:55:55;;;;;;;11.43;2.47;;;12.40;99.90;;;-144.05;76.29;125687.94;4798254;29;20035;-83
2022/09/19 07:58:26;;;;;;;13.63;2.90;;;12.60;99.90;;;-144.05;75.78;125687.94;4802292;29;20508;-85
2022/09/19 08:00:53;;;;;;;11.73;2.50;;;12.60;99.90;;;-144.05;75.38;125687.94;4799698;29;20031;-84
2022/09/19 08:03:21;;;;;;;8.15;2.50;;;12.60;99.90;;;-144.05;75.50;125687.94;4793012;30;20057;-85
2022/09/19 08:05:51;;;;;;;14.20;3.03;;;12.60;99.90;;;-144.05;75.28;125687.94;4808982;29;20127;-83
2022/09/19 08:08:22;;;;;;;14.00;2.83;;;12.80;99.90;;;-144.05;75.13;125687.94;4792468;29;20084;-85
2022/09/19 08:10:49;;;;;;;14.18;2.80;;;12.90;99.90;;;-144.05;75.63;125687.94;4793170;29;20038;-86
2022/09/19 08:13:18;;;;;;;12.65;2.45;;;13.00;99.90;;;-144.05;75.64;125687.94;4791921;29;20040;-85
2022/09/19 08:15:48;;;;;;;12.05;2.45;;;13.20;99.90;;;-144.05;73.62;125687.94;4791464;30;20492;-84
2022/09/19 08:18:19;;;;;;;15.63;2.40;;;13.30;99.90;;;-144.05;73.84;125687.94;4791159;29;20101;-83
2022/09/19 08:20:46;;;;;;;8.32;2.40;;;13.40;99.90;;;-144.05;73.52;125687.94;4792176;29;20034;-83
2022/09/19 08:23:17;;;;;;;14.23;2.53;;;13.50;99.90;;;-144.05;71.47;125687.94;4791287;29;20039;-84
2022/09/19 08:25:51;;;;;;;12.82;2.53;;;13.90;99.90;;;-144.05;69.60;125687.94;4793558;29;20415;-85
2022/09/19 08:28:20;;;;;;;11.85;1.92;;;14.30;99.90;;;-144.05;67.17;125687.94;4795134;29;20059;-85
2022/09/19 08:30:47;;;;;;;12.95;2.00;;;14.90;99.90;;;-144.05;65.46;125687.94;4794453;29;20460;-85
2022/09/19 08:33:15;;;;;;;16.67;2.30;;;15.10;99.90;;;-144.05;64.94;125687.94;4791729;29;20043;-85
2022/09/19 08:35:43;;;;;;;9.32;2.30;;;15.50;99.90;;;-144.05;63.18;125687.94;4792109;29;20034;-84
2022/09/19 08:38:13;;;;;;;10.95;1.45;;;15.90;99.90;;;-144.05;60.89;125687.94;4790274;29;20105;-85
2022/09/19 08:41:21;;;;;;;12.77;2.17;;;16.20;99.90;;;-144.05;60.29;125687.94;4790742;30;20122;-84
2022/09/19 08:44:41;;;;;;;16.95;2.78;;;16.40;99.90;;;-144.05;59.12;125687.94;4825396;29;20034;-84
2022/09/19 08:47:15;;;;;;;15.07;2.40;;;16.60;99.90;;;-144.05;58.84;125687.94;4792446;30;20090;-84
2022/09/19 08:49:56;;;;;;;11.50;1.75;;;16.70;99.90;;;-144.05;58.93;125687.94;4791868;29;20040;-85
2022/09/19 08:52:47;;;;;;;8.93;1.65;;;16.60;99.90;;;-144.05;58.14;125687.94;4793833;30;20047;-82
2022/09/19 08:55:36;;;;;;;5.90;1.58;;;16.80;99.90;;;-144.05;58.27;125687.94;4793334;29;20039;-85
2022/09/19 08:58:23;;;;;;;10.40;2.10;;;17.20;99.90;;;-144.05;56.25;125687.94;4794814;29;20496;-83
2022/09/19 09:00:53;;;;;;;9.32;2.22;;;17.50;99.90;;;-144.05;56.66;125687.94;4793178;30;20031;-83
2022/09/19 09:03:41;;;;;;;12.57;1.65;;;17.70;99.90;;;-144.05;54.99;125687.94;4806572;29;20508;-85
2022/09/19 09:06:57;;;;;;;11.38;2.20;;;17.70;99.90;;;-144.05;55.40;125687.94;4792277;29;20067;-83
2022/09/19 09:09:55;;;;;;;10.38;1.80;;;17.70;99.90;;;-144.05;54.76;125687.94;4806806;29;20047;-83
2022/09/19 09:12:32;;;;;;;11.80;1.90;;;17.70;99.90;;;-144.05;55.87;125687.94;4790023;29;20039;-83
2022/09/19 09:15:25;;;;;;;12.40;1.90;;;17.70;99.90;;;-144.05;54.36;125687.94;4790086;30;20051;-82
2022/09/19 09:18:33;;;;;;;8.07;1.45;;;17.90;99.90;;;-144.05;53.87;125687.94;4789894;29;20042;-84
2022/09/19 09:21:19;;;;;;;5.88;1.60;;;17.70;99.90;;;-144.05;55.36;125687.94;4792012;29;20035;-83
2022/09/19 09:24:04;;;;;;;11.05;2.13;;;17.20;99.90;;;-144.05;57.29;125687.94;4791212;29;20092;-84
2022/09/19 09:26:40;;;;;;;9.55;1.38;;;16.90;99.90;;;-144.05;57.00;125687.94;4790753;29;20035;-84
2022/09/19 09:29:36;;;;;;;9.65;1.60;;;16.90;99.90;;;-144.05;55.19;125687.94;4804679;29;20035;-84
2022/09/19 09:32:32;;;;;;;11.13;2.40;;;17.20;99.90;;;-144.05;54.54;125687.94;4790016;29;20467;-83
2022/09/19 09:35:26;;;;;;;6.30;1.58;;;17.50;99.90;;;-144.05;54.04;125687.94;4790596;29;20035;-83
2022/09/19 09:38:31;;;;;;;8.27;2.38;;;17.70;99.90;;;-144.05;52.44;125687.94;4790934;29;20035;-83
2022/09/19 09:45:12;;;;;;;9.45;1.95;;;18.20;99.90;;;-144.05;52.16;125687.94;4790409;30;20181;-85
2022/09/19 09:48:08;;;;;;;10.25;1.63;;;18.00;99.90;;;-144.05;53.54;125687.94;4824016;29;20375;-83
2022/09/19 09:51:18;;;;;;;11.60;1.70;;;17.50;99.90;;;-144.05;54.90;125687.94;4790196;29;20130;-83
2022/09/19 09:57:55;;;;;;;6.97;1.50;;;16.50;99.90;;;-144.05;56.51;125687.94;4791021;30;20047;-82
2022/09/19 10:03:52;;;;;;;10.18;1.75;;;16.20;99.90;;;-144.05;56.23;125687.94;4791192;30;20046;-84
2022/09/19 10:07:26;;;;;;;9.18;1.35;;;16.20;99.90;;;-144.05;56.27;125687.94;4789874;29;20092;-82
2022/09/19 10:10:15;;;;;;;7.88;1.73;;;15.90;99.90;;;-144.05;56.96;125687.94;4804848;29;20046;-83
2022/09/19 10:13:21;;;;;;;6.97;1.25;;;15.70;99.90;;;-144.05;56.01;125687.94;4790317;29;20050;-82
2022/09/19 10:15:54;;;;;;;4.82;1.42;;;16.50;99.90;;;-144.05;53.53;125687.94;4788812;30;20060;-83
2022/09/19 10:18:28;;;;;;;15.25;2.08;;;17.30;99.90;;;-144.05;51.09;125687.94;4803450;29;20036;-82
2022/09/19 10:20:55;;;;;;;6.15;1.25;;;17.70;99.90;;;-144.05;51.41;125687.94;4804886;29;20031;-83
2022/09/19 10:23:31;;;;;;;5.43;1.23;;;17.80;99.90;;;-144.05;51.63;125687.94;4790830;29;20045;-84
2022/09/19 10:26:15;;;;;;;8.77;1.88;;;17.90;99.90;;;-144.05;52.29;125687.94;4789402;29;20059;-83
2022/09/19 10:28:51;;;;;;;10.50;1.70;;;17.70;99.90;;;-144.05;51.56;125687.94;4790493;29;20043;-82
2022/09/19 10:31:47;;;;;;;6.97;1.90;;;17.50;99.90;;;-144.05;51.59;125687.94;4790424;30;20360;-83
2022/09/19 10:34:34;;;;;;;5.25;1.23;;;17.90;99.90;;;-144.05;48.70;125687.94;4795938;29;20530;-82
2022/09/19 10:37:09;;;;;;;8.35;1.70;;;18.30;99.90;;;-144.05;48.78;125687.94;4794953;29;20169;-83
2022/09/19 10:39:44;;;;;;;6.82;1.65;;;18.80;99.90;;;-144.05;48.35;125687.94;4812492;24;20058;-82
2022/09/19 10:42:41;;;;;;;4.03;2.22;;;18.60;99.90;;;-144.05;47.51;125687.94;4792189;30;20031;-80
2022/09/19 10:45:30;;;;;;;10.35;3.63;;;18.20;99.90;;;-144.05;49.20;125687.94;4794052;29;20043;-78
2022/09/19 10:48:12;;;;;;;12.20;3.40;;;17.80;99.90;;;-144.05;50.27;125687.94;4806352;29;20035;-83
2022/09/19 10:50:48;;;;;;;7.35;1.90;;;17.50;99.90;;;-144.05;51.25;125687.94;4790600;29;20039;-81
2022/09/19 10:53:39;;;;;;;6.88;1.00;;;17.20;99.90;;;-144.05;52.62;125687.94;4805233;29;20035;-82
2022/09/19 10:56:24;;;;;;;10.70;1.52;;;16.80;99.90;;;-144.05;57.51;125687.94;4793460;29;20031;-80